createdAt,value
2022-11-21T00:00:32.811Z,99.55
2022-11-21T00:03:03.414Z,99.50
2022-11-21T00:05:31.470Z,99.60
2022-11-21T00:07:58.470Z,99.81
2022-11-21T00:10:26.181Z,99.74
2022-11-21T00:12:57.239Z,99.48
2022-11-21T00:15:26.108Z,99.21
2022-11-21T00:17:52.841Z,99.06
2022-11-21T00:20:21.300Z,98.69
2022-11-21T00:22:48.504Z,98.72
2022-11-21T00:25:15.437Z,99.00
2022-11-21T00:27:42.490Z,99.30
2022-11-21T00:30:10.861Z,99.49
2022-11-21T00:32:37.438Z,99.52
2022-11-21T00:35:05.576Z,99.00
2022-11-21T00:37:33.325Z,99.18
2022-11-21T00:40:00.351Z,99.29
2022-11-21T00:42:26.953Z,99.22
2022-11-21T00:44:53.445Z,99.11
2022-11-21T00:47:20.007Z,98.78
2022-11-21T00:49:46.879Z,98.56
2022-11-21T00:52:14.089Z,98.67
2022-11-21T00:54:40.714Z,98.56
2022-11-21T00:57:07.316Z,98.81
2022-11-21T00:59:34.358Z,98.85
2022-11-21T01:02:01.063Z,98.92
2022-11-21T01:04:32.531Z,99.00
2022-11-21T01:06:59.163Z,98.79
2022-11-21T01:09:25.795Z,98.96
2022-11-21T01:11:52.810Z,98.40
2022-11-21T01:14:19.506Z,98.99
2022-11-21T01:16:46.204Z,98.75
2022-11-21T01:19:12.889Z,98.68
2022-11-21T01:21:39.465Z,98.49
2022-11-21T01:24:06.380Z,98.72
2022-11-21T01:26:33.354Z,98.52
2022-11-21T01:28:59.965Z,98.75
2022-11-21T01:31:29.762Z,98.57
2022-11-21T01:33:58.464Z,98.71
2022-11-21T01:36:33.695Z,98.44
2022-11-21T01:39:04.079Z,98.32
2022-11-21T01:41:33.889Z,98.16
2022-11-21T01:44:10.118Z,98.10
2022-11-21T01:46:36.614Z,98.19
2022-11-21T01:49:08.592Z,98.66
2022-11-21T01:51:44.305Z,98.24
2022-11-21T01:54:24.922Z,98.39
2022-11-21T01:57:00.698Z,98.20
2022-11-21T01:59:39.977Z,98.53
2022-11-21T02:02:09.614Z,98.37
2022-11-21T02:04:37.945Z,98.38
2022-11-21T02:07:06.724Z,98.55
2022-11-21T02:09:36.047Z,98.24
2022-11-21T02:12:08.121Z,98.26
2022-11-21T02:14:36.356Z,98.14
2022-11-21T02:17:06.771Z,98.33
2022-11-21T02:19:43.777Z,98.39
2022-11-21T02:22:21.387Z,98.30
2022-11-21T02:24:57.059Z,98.28
2022-11-21T02:27:24.100Z,98.22
2022-11-21T02:29:51.047Z,98.28
2022-11-21T02:32:31.802Z,98.15
2022-11-21T02:34:58.373Z,98.13
2022-11-21T02:37:25.173Z,98.06
2022-11-21T02:39:53.106Z,98.36
2022-11-21T02:42:36.815Z,98.30
2022-11-21T02:45:19.055Z,98.21
2022-11-21T02:47:50.429Z,98.33
2022-11-21T02:50:23.925Z,98.37
2022-11-21T02:52:50.590Z,98.41
2022-11-21T02:55:17.324Z,98.43
2022-11-21T02:57:43.875Z,98.40
2022-11-21T03:00:11.544Z,98.26
2022-11-21T03:02:38.346Z,98.48
2022-11-21T03:05:07.411Z,98.11
2022-11-21T03:07:34.707Z,98.18
2022-11-21T03:10:01.860Z,98.33
2022-11-21T03:12:28.495Z,98.31
2022-11-21T03:14:55.125Z,98.07
2022-11-21T03:17:23.645Z,98.13
2022-11-21T03:19:50.255Z,98.16
2022-11-21T03:22:16.783Z,98.19
2022-11-21T03:24:43.732Z,97.89
2022-11-21T03:27:10.278Z,98.02
2022-11-21T03:29:36.799Z,97.95
2022-11-21T03:32:03.570Z,97.92
2022-11-21T03:34:30.603Z,97.92
2022-11-21T03:36:57.288Z,98.04
2022-11-21T03:39:23.867Z,97.94
2022-11-21T03:41:50.756Z,97.96
2022-11-21T03:44:17.569Z,98.23
2022-11-21T03:46:46.216Z,98.00
2022-11-21T03:49:14.088Z,97.97
2022-11-21T03:51:40.712Z,97.88
2022-11-21T03:54:07.784Z,97.71
2022-11-21T03:56:34.896Z,97.69
2022-11-21T03:59:02.307Z,97.79
2022-11-21T04:01:33.820Z,97.78
2022-11-21T04:04:03.066Z,97.79
2022-11-21T04:06:31.332Z,97.63
2022-11-21T04:08:58.157Z,97.66
2022-11-21T04:11:24.900Z,97.61
2022-11-21T04:13:52.641Z,97.47
2022-11-21T04:16:19.547Z,97.61
2022-11-21T04:18:46.483Z,97.52
2022-11-21T04:21:13.385Z,97.52
2022-11-21T04:23:40.005Z,97.53
2022-11-21T04:26:07.018Z,97.70
2022-11-21T04:28:33.856Z,97.55
2022-11-21T04:31:10.928Z,97.42
2022-11-21T04:33:39.221Z,97.46
2022-11-21T04:36:08.044Z,97.57
2022-11-21T04:38:34.687Z,97.57
2022-11-21T04:41:01.433Z,97.56
2022-11-21T04:43:28.049Z,97.62
2022-11-21T04:45:54.721Z,97.42
2022-11-21T04:48:21.413Z,97.26
2022-11-21T04:50:48.067Z,97.41
2022-11-21T04:53:14.786Z,97.14
2022-11-21T04:55:41.409Z,96.78
2022-11-21T04:58:07.978Z,96.76
2022-11-21T05:00:34.751Z,97.09
2022-11-21T05:03:05.191Z,97.14
2022-11-21T05:05:32.708Z,97.03
2022-11-21T05:07:59.395Z,96.89
2022-11-21T05:10:26.108Z,96.99
2022-11-21T05:13:18.977Z,97.11
2022-11-21T05:15:46.208Z,97.15
2022-11-21T05:18:13.106Z,97.20
2022-11-21T05:20:39.798Z,96.78
2022-11-21T05:23:06.432Z,96.83
2022-11-21T05:25:33.081Z,96.85
2022-11-21T05:27:59.961Z,96.98
2022-11-21T05:30:26.574Z,97.07
2022-11-21T05:32:53.296Z,97.17
2022-11-21T05:35:20.320Z,96.95
2022-11-21T05:37:46.927Z,96.98
2022-11-21T05:40:13.550Z,96.91
2022-11-21T05:43:00.439Z,96.77
2022-11-21T05:45:27.064Z,96.74
2022-11-21T05:47:53.640Z,96.59
2022-11-21T05:50:20.305Z,96.68
2022-11-21T05:52:46.857Z,96.56
2022-11-21T05:55:13.878Z,96.27
2022-11-21T05:57:41.118Z,96.76
2022-11-21T06:00:08.452Z,96.99
2022-11-21T06:02:54.120Z,96.93
2022-11-21T06:05:20.865Z,96.84
2022-11-21T06:07:47.465Z,96.70
2022-11-21T06:10:14.128Z,96.61
2022-11-21T06:12:40.725Z,96.78
2022-11-21T06:15:07.916Z,97.05
2022-11-21T06:17:34.502Z,97.41
2022-11-21T06:20:01.092Z,97.04
2022-11-21T06:22:27.661Z,96.93
2022-11-21T06:24:54.207Z,97.08
2022-11-21T06:27:20.792Z,97.32
2022-11-21T06:29:47.348Z,96.86
2022-11-21T06:32:14.019Z,97.11
2022-11-21T06:34:40.700Z,97.37
2022-11-21T06:37:07.256Z,97.57
2022-11-21T06:39:33.871Z,97.47
2022-11-21T06:42:01.533Z,97.42
2022-11-21T06:44:28.473Z,97.27
2022-11-21T06:46:55.387Z,97.11
2022-11-21T06:49:22.295Z,97.16
2022-11-21T06:51:49.226Z,97.30
2022-11-21T06:54:17.010Z,97.10
2022-11-21T06:56:44.306Z,97.25
2022-11-21T06:59:11.315Z,96.56
2022-11-21T07:01:38.052Z,96.30
2022-11-21T07:04:04.826Z,96.37
2022-11-21T07:06:31.472Z,96.14
2022-11-21T07:09:31.147Z,96.24
2022-11-21T07:11:44.769Z,96.21
2022-11-21T07:14:11.580Z,96.07
2022-11-21T07:16:38.329Z,96.47
2022-11-21T07:19:05.564Z,96.73
2022-11-21T07:21:32.145Z,96.70
2022-11-21T07:23:58.807Z,96.29
2022-11-21T07:26:25.891Z,96.44
2022-11-21T07:28:52.513Z,96.63
2022-11-21T07:31:19.148Z,96.28
2022-11-21T07:33:46.824Z,96.23
2022-11-21T07:36:13.879Z,96.16
2022-11-21T07:38:41.893Z,96.03
2022-11-21T07:41:10.091Z,95.95
2022-11-21T07:43:37.041Z,95.83
2022-11-21T07:46:03.709Z,95.73
2022-11-21T07:48:30.326Z,96.07
2022-11-21T07:50:56.916Z,95.74
2022-11-21T07:53:24.173Z,95.53
2022-11-21T07:55:50.796Z,95.84
2022-11-21T07:58:17.967Z,95.67
2022-11-21T08:00:44.730Z,95.29
2022-11-21T08:03:12.684Z,95.50
2022-11-21T08:05:41.731Z,95.26
2022-11-21T08:08:09.699Z,94.91
2022-11-21T08:10:41.398Z,94.93
2022-11-21T08:13:08.115Z,94.83
2022-11-21T08:15:35.949Z,94.71
2022-11-21T08:18:10.307Z,94.62
2022-11-21T08:20:36.941Z,95.01
2022-11-21T08:23:03.713Z,94.78
2022-11-21T08:25:30.483Z,94.70
2022-11-21T08:27:57.763Z,94.70
2022-11-21T08:30:25.078Z,94.61
2022-11-21T08:32:52.069Z,94.56
2022-11-21T08:35:19.061Z,94.80
2022-11-21T08:37:45.709Z,94.19
2022-11-21T08:40:12.179Z,94.07
2022-11-21T08:42:38.712Z,94.00
2022-11-21T08:45:06.333Z,93.62
2022-11-21T08:47:33.868Z,94.35
2022-11-21T08:50:05.791Z,95.20
2022-11-21T08:52:35.247Z,95.21
2022-11-21T08:55:01.825Z,94.54
2022-11-21T08:57:29.241Z,94.74
2022-11-21T08:59:55.829Z,94.81
2022-11-21T09:02:22.378Z,94.71
2022-11-21T09:04:49.321Z,94.23
2022-11-21T09:07:15.989Z,94.23
2022-11-21T09:09:42.947Z,94.51
2022-11-21T09:12:09.542Z,94.53
2022-11-21T09:14:54.488Z,95.20
2022-11-21T09:17:40.036Z,94.45
2022-11-21T09:20:07.161Z,94.43
2022-11-21T09:22:33.746Z,94.46
2022-11-21T09:25:00.318Z,94.67
2022-11-21T09:27:26.793Z,94.79
2022-11-21T09:29:54.319Z,94.68
2022-11-21T09:32:21.298Z,94.26
2022-11-21T09:34:47.949Z,93.92
2022-11-21T09:37:14.621Z,93.67
2022-11-21T09:39:41.188Z,93.78
2022-11-21T09:42:07.855Z,94.22
2022-11-21T09:44:47.285Z,94.09
2022-11-21T09:47:36.860Z,94.07
2022-11-21T09:50:24.139Z,94.34
2022-11-21T09:52:50.748Z,92.99
2022-11-21T09:55:17.234Z,93.74
2022-11-21T09:57:47.072Z,93.37
2022-11-21T10:00:21.153Z,93.31
2022-11-21T10:02:48.570Z,92.90
2022-11-21T10:05:15.883Z,92.81
2022-11-21T10:07:44.254Z,93.49
2022-11-21T10:11:12.609Z,93.55
2022-11-21T10:13:45.486Z,92.40
2022-11-21T10:16:14.865Z,92.24
2022-11-21T10:19:04.621Z,92.74
2022-11-21T10:21:39.799Z,92.72
2022-11-21T10:24:12.460Z,92.69
2022-11-21T10:27:21.035Z,92.13
2022-11-21T10:29:54.955Z,92.34
2022-11-21T10:32:43.809Z,92.10
2022-11-21T10:35:19.337Z,92.39
2022-11-21T10:37:50.824Z,92.11
2022-11-21T10:40:37.340Z,92.51
2022-11-21T10:43:41.881Z,92.77
2022-11-21T10:46:11.269Z,93.04
2022-11-21T10:48:37.939Z,92.81
2022-11-21T10:51:33.295Z,93.10
2022-11-21T10:54:27.005Z,92.28
2022-11-21T10:56:56.734Z,92.71
2022-11-21T10:59:30.576Z,93.28
2022-11-21T11:02:20.873Z,93.06
2022-11-21T11:04:52.071Z,92.13
2022-11-21T11:07:28.491Z,91.11
2022-11-21T11:10:16.124Z,90.92
2022-11-21T11:13:08.728Z,91.96
2022-11-21T11:16:01.114Z,90.59
2022-11-21T11:18:28.058Z,89.21
2022-11-21T11:21:11.923Z,89.12
2022-11-21T11:23:38.666Z,89.88
2022-11-21T11:26:21.371Z,90.03
2022-11-21T11:28:48.298Z,89.10
2022-11-21T11:31:15.260Z,89.38
2022-11-21T11:33:47.722Z,90.39
2022-11-21T11:36:45.302Z,90.62
2022-11-21T11:39:35.452Z,90.68
2022-11-21T11:42:35.806Z,90.66
2022-11-21T11:45:30.718Z,90.69
2022-11-21T11:48:04.396Z,89.94
2022-11-21T11:50:32.668Z,90.42
2022-11-21T11:53:13.753Z,91.00
2022-11-21T11:55:53.224Z,89.77
2022-11-21T11:58:33.768Z,89.42
2022-11-21T12:01:00.322Z,90.73
2022-11-21T12:03:59.942Z,91.61
2022-11-21T12:07:17.990Z,91.44
2022-11-21T12:09:32.775Z,90.57
2022-11-21T12:12:08.636Z,90.69
2022-11-21T12:15:19.510Z,91.06
2022-11-21T12:17:47.076Z,90.05
2022-11-21T12:20:40.041Z,90.65
2022-11-21T12:23:09.421Z,90.18
2022-11-21T12:25:47.405Z,89.86
2022-11-21T12:28:28.532Z,90.91
2022-11-21T12:31:27.555Z,89.88
2022-11-21T12:34:17.099Z,89.17
2022-11-21T12:36:59.539Z,90.01
2022-11-21T12:39:34.992Z,90.45
2022-11-21T12:42:25.656Z,90.74
2022-11-21T12:45:06.084Z,90.53
2022-11-21T12:48:10.573Z,91.47
2022-11-21T12:51:00.751Z,91.62
2022-11-21T12:53:58.774Z,91.32
2022-11-21T12:56:40.608Z,91.07
2022-11-21T12:59:09.382Z,91.26
2022-11-21T13:01:50.535Z,91.93
2022-11-21T13:04:38.594Z,92.44
2022-11-21T13:07:06.314Z,91.88
2022-11-21T13:09:39.724Z,92.77
2022-11-21T13:12:16.026Z,92.05
2022-11-21T13:14:55.604Z,92.39
2022-11-21T13:17:31.131Z,92.00
2022-11-21T13:20:05.928Z,92.87
2022-11-21T13:22:35.223Z,91.83
2022-11-21T13:25:02.804Z,92.12
2022-11-21T13:27:40.578Z,92.57
2022-11-21T13:30:07.075Z,91.70
2022-11-21T13:32:40.843Z,91.82
2022-11-21T13:35:19.548Z,92.15
2022-11-21T13:37:52.439Z,91.11
2022-11-21T13:40:40.035Z,91.82
2022-11-21T13:43:32.214Z,91.72
2022-11-21T13:45:58.815Z,91.40
2022-11-21T13:48:25.440Z,92.25
2022-11-21T13:51:03.988Z,91.22
2022-11-21T13:53:57.795Z,91.38
2022-11-21T13:56:35.995Z,91.13
2022-11-21T13:59:02.863Z,90.91
2022-11-21T14:01:51.385Z,91.42
2022-11-21T14:04:32.705Z,91.53
2022-11-21T14:07:29.200Z,92.32
2022-11-21T14:09:58.777Z,92.83
2022-11-21T14:12:35.257Z,92.37
2022-11-21T14:15:04.141Z,92.80
2022-11-21T14:17:53.720Z,92.87
2022-11-21T14:20:49.300Z,92.91
2022-11-21T14:23:16.793Z,92.27
2022-11-21T14:25:49.178Z,91.96
2022-11-21T14:28:23.281Z,92.02
2022-11-21T14:31:02.382Z,92.75
2022-11-21T14:33:33.990Z,92.34
2022-11-21T14:36:14.359Z,92.74
2022-11-21T14:38:57.480Z,93.03
2022-11-21T14:41:37.068Z,93.08
2022-11-21T14:44:04.053Z,93.35
2022-11-21T14:46:38.904Z,93.35
2022-11-21T14:49:15.496Z,93.53
2022-11-21T14:51:44.201Z,93.06
2022-11-21T14:54:17.326Z,93.05
2022-11-21T14:56:48.091Z,92.66
2022-11-21T14:59:27.940Z,91.91
2022-11-21T15:01:57.048Z,92.01
2022-11-21T15:04:32.849Z,93.20
2022-11-21T15:06:59.703Z,93.54
2022-11-21T15:12:25.917Z,94.43
2022-11-21T15:15:00.834Z,94.07
2022-11-21T15:17:28.488Z,93.48
2022-11-21T15:20:17.767Z,94.07
2022-11-21T15:22:44.845Z,93.99
2022-11-21T15:25:12.913Z,93.77
2022-11-21T15:27:39.531Z,93.41
2022-11-21T15:30:19.899Z,93.07
2022-11-21T15:33:01.534Z,93.44
2022-11-21T15:35:40.438Z,93.57
2022-11-21T15:38:40.750Z,93.42
2022-11-21T15:41:10.109Z,93.27
2022-11-21T15:43:48.194Z,93.64
2022-11-21T15:46:31.180Z,93.88
2022-11-21T15:49:03.593Z,92.92
2022-11-21T15:52:06.171Z,93.19
2022-11-21T15:54:28.813Z,92.58
2022-11-21T15:56:55.722Z,92.97
2022-11-21T15:59:22.246Z,93.50
2022-11-21T16:01:48.912Z,93.18
2022-11-21T16:04:17.032Z,92.54
2022-11-21T16:06:45.301Z,92.89
2022-11-21T16:09:11.909Z,93.41
2022-11-21T16:11:40.506Z,93.39
2022-11-21T16:14:08.321Z,93.41
2022-11-21T16:16:42.987Z,93.56
2022-11-21T16:19:11.626Z,93.06
2022-11-21T16:21:38.467Z,92.80
2022-11-21T16:24:05.542Z,92.34
2022-11-21T16:26:33.481Z,92.59
2022-11-21T16:29:01.330Z,93.09
2022-11-21T16:31:30.168Z,93.13
2022-11-21T16:33:57.978Z,93.03
2022-11-21T16:36:27.191Z,93.12
2022-11-21T16:38:54.579Z,93.49
2022-11-21T16:41:23.126Z,93.13
2022-11-21T16:43:54.450Z,93.52
2022-11-21T16:46:23.665Z,93.31
2022-11-21T16:49:01.243Z,93.63
2022-11-21T16:51:29.145Z,93.17
2022-11-21T16:53:57.160Z,93.56
2022-11-21T16:56:24.362Z,93.11
2022-11-21T16:58:51.037Z,92.86
2022-11-21T17:01:23.268Z,92.97
2022-11-21T17:03:50.703Z,93.24
2022-11-21T17:06:19.636Z,93.15
2022-11-21T17:08:47.151Z,93.14
2022-11-21T17:11:18.074Z,93.22
2022-11-21T17:13:47.105Z,93.01
2022-11-21T17:16:15.411Z,93.19
2022-11-21T17:18:42.103Z,93.06
2022-11-21T17:21:13.860Z,93.49
2022-11-21T17:23:42.736Z,93.64
2022-11-21T17:26:14.868Z,92.94
2022-11-21T17:28:45.548Z,92.94
2022-11-21T17:31:15.398Z,93.39
2022-11-21T17:33:42.988Z,93.64
2022-11-21T17:36:14.248Z,93.88
2022-11-21T17:38:42.416Z,94.36
2022-11-21T17:41:11.769Z,94.22
2022-11-21T17:43:38.978Z,94.08
2022-11-21T17:46:10.205Z,94.40
2022-11-21T17:48:37.802Z,94.56
2022-11-21T17:51:07.890Z,94.28
2022-11-21T17:53:36.584Z,93.85
2022-11-21T17:56:05.814Z,93.84
2022-11-21T17:58:33.671Z,93.63
2022-11-21T18:01:02.219Z,93.96
2022-11-21T18:03:29.849Z,93.93
2022-11-21T18:06:08.790Z,93.84
2022-11-21T18:08:37.654Z,93.59
2022-11-21T18:11:05.859Z,93.86
2022-11-21T18:13:34.173Z,94.16
2022-11-21T18:16:06.127Z,94.01
2022-11-21T18:18:34.713Z,94.04
2022-11-21T18:21:06.005Z,93.61
2022-11-21T18:23:32.790Z,93.98
2022-11-21T18:26:14.256Z,93.86
2022-11-21T18:28:41.397Z,93.86
2022-11-21T18:31:09.413Z,94.19
2022-11-21T18:33:37.002Z,94.71
2022-11-21T18:36:05.797Z,94.92
2022-11-21T18:38:48.237Z,94.76
2022-11-21T18:41:25.238Z,94.73
2022-11-21T18:43:57.155Z,94.71
2022-11-21T18:46:25.495Z,94.87
2022-11-21T18:49:04.169Z,95.14
2022-11-21T18:51:32.590Z,95.51
2022-11-21T18:54:06.853Z,95.85
2022-11-21T18:56:35.120Z,96.11
2022-11-21T18:59:03.406Z,96.06
2022-11-21T19:01:30.480Z,96.33
2022-11-21T19:03:57.253Z,96.59
2022-11-21T19:06:25.321Z,96.76
2022-11-21T19:08:54.231Z,96.85
2022-11-21T19:11:24.222Z,96.74
2022-11-21T19:13:51.316Z,96.58
2022-11-21T19:16:19.917Z,96.98
2022-11-21T19:19:05.407Z,97.22
2022-11-21T19:21:38.192Z,97.09
2022-11-21T19:24:06.782Z,97.39
2022-11-21T19:26:33.809Z,97.53
2022-11-21T19:29:01.530Z,97.67
2022-11-21T19:31:28.212Z,97.97
2022-11-21T19:33:54.800Z,98.26
2022-11-21T19:36:23.321Z,98.33
2022-11-21T19:38:51.714Z,98.35
2022-11-21T19:41:21.652Z,98.53
2022-11-21T19:43:53.217Z,98.39
2022-11-21T19:46:26.487Z,98.20
2022-11-21T19:48:55.867Z,98.17
2022-11-21T19:51:24.889Z,98.02
2022-11-21T19:53:51.458Z,97.58
2022-11-21T19:56:20.178Z,97.45
2022-11-21T19:58:48.363Z,97.01
2022-11-21T20:01:24.454Z,96.87
2022-11-21T20:03:54.058Z,97.05
2022-11-21T20:06:23.262Z,97.14
2022-11-21T20:08:54.803Z,97.19
2022-11-21T20:11:22.795Z,97.17
2022-11-21T20:13:50.543Z,96.98
2022-11-21T20:16:21.995Z,97.15
2022-11-21T20:18:49.751Z,97.13
2022-11-21T20:21:18.252Z,97.28
2022-11-21T20:23:48.556Z,97.41
2022-11-21T20:26:17.446Z,97.55
2022-11-21T20:28:44.685Z,97.49
2022-11-21T20:31:16.809Z,97.50
2022-11-21T20:33:45.604Z,97.27
2022-11-21T20:36:17.345Z,97.32
2022-11-21T20:38:55.410Z,97.33
2022-11-21T20:41:23.810Z,97.87
2022-11-21T20:46:51.130Z,97.99
2022-11-21T20:49:17.912Z,97.97
2022-11-21T20:54:31.582Z,98.01
2022-11-21T20:56:58.495Z,97.71
2022-11-21T20:59:26.273Z,97.83
2022-11-21T21:01:53.194Z,98.05
2022-11-21T21:04:19.902Z,98.30
2022-11-21T21:06:46.568Z,98.31
2022-11-21T21:09:13.151Z,98.24
2022-11-21T21:11:54.909Z,98.21
2022-11-21T21:14:22.489Z,98.29
2022-11-21T21:16:49.522Z,98.44
2022-11-21T21:19:17.284Z,98.23
2022-11-21T21:21:43.795Z,98.24
2022-11-21T21:24:11.520Z,98.42
2022-11-21T21:26:43.009Z,98.59
2022-11-21T21:29:11.640Z,98.64
2022-11-21T21:31:38.205Z,98.77
2022-11-21T21:34:04.865Z,98.91
2022-11-21T21:36:32.071Z,99.16
2022-11-21T21:39:00.365Z,99.10
2022-11-21T21:41:29.215Z,99.03
2022-11-21T21:43:57.069Z,99.17
2022-11-21T21:46:25.927Z,99.02
2022-11-21T21:48:55.841Z,98.93
2022-11-21T21:51:23.542Z,98.83
2022-11-21T21:53:51.676Z,98.66
2022-11-21T21:56:20.580Z,98.41
2022-11-21T21:58:48.748Z,98.09
2022-11-21T22:01:18.038Z,97.52
2022-11-21T22:03:46.435Z,97.41
2022-11-21T22:06:15.616Z,96.82
2022-11-21T22:08:43.076Z,96.51
2022-11-21T22:11:13.547Z,96.38
2022-11-21T22:13:42.730Z,96.27
2022-11-21T22:16:10.815Z,95.90
2022-11-21T22:18:38.262Z,95.81
2022-11-21T22:21:18.773Z,95.93
2022-11-21T22:24:17.202Z,96.12
2022-11-21T22:26:33.111Z,96.10
2022-11-21T22:28:59.679Z,95.81
2022-11-21T22:31:26.306Z,95.69
2022-11-21T22:33:53.061Z,95.16
2022-11-21T22:36:19.683Z,95.30
2022-11-21T22:38:46.488Z,95.46
2022-11-21T22:41:18.921Z,95.77
2022-11-21T22:43:50.496Z,96.19
2022-11-21T22:46:17.081Z,96.14
2022-11-21T22:48:43.672Z,96.20
2022-11-21T22:51:15.316Z,96.52
2022-11-21T22:53:41.883Z,96.68
2022-11-21T22:56:10.693Z,96.57
2022-11-21T22:58:39.334Z,96.58
2022-11-21T23:01:10.148Z,96.73
2022-11-21T23:03:36.870Z,96.78
2022-11-21T23:06:15.410Z,96.80
2022-11-21T23:08:42.777Z,96.67
2022-11-21T23:11:15.567Z,96.59
2022-11-21T23:13:43.777Z,96.58
2022-11-21T23:16:11.916Z,96.59
2022-11-21T23:18:39.434Z,96.62
2022-11-21T23:21:07.114Z,96.32
2022-11-21T23:23:33.616Z,96.07
2022-11-21T23:26:00.332Z,96.33
2022-11-21T23:28:27.153Z,96.36
2022-11-21T23:30:53.730Z,96.28
2022-11-21T23:33:20.555Z,95.85
2022-11-21T23:35:47.124Z,95.55
2022-11-21T23:38:15.954Z,95.52
2022-11-21T23:40:46.009Z,95.79
2022-11-21T23:43:14.238Z,95.68
2022-11-21T23:45:41.621Z,95.82
2022-11-21T23:48:08.403Z,95.90
2022-11-21T23:50:35.111Z,95.74
2022-11-21T23:53:01.865Z,95.70
2022-11-21T23:55:28.480Z,95.70
2022-11-21T23:57:55.150Z,95.77
